This is the latest recevied weather packets stored in our database for station/object SP1BMW-13. If no packets are shown the sender has not sent any weather packets the latest 10 day(s).
| Time | Temp. | Humidity | Pressure | Rain* | Wind** | Luminosity | Snow |
|---|---|---|---|---|---|---|---|
| 1787837296 | 26.11° C | 37% | 1018 hPa | 0 mm | 2.68 m/s, 355° | 504 W/m² | - |
| 1787837236 | 26.11° C | 38% | 1018.1 hPa | 0 mm | 0.89 m/s, 133° | 504 W/m² | - |
| 1787837176 | 26.11° C | 37% | 1018.1 hPa | 0 mm | 1.79 m/s, 38° | 508 W/m² | - |
| 1787837116 | 26.11° C | 37% | 1018.2 hPa | 0 mm | 1.79 m/s, 58° | 510 W/m² | - |
| 1787837056 | 26.11° C | 36% | 1018.2 hPa | 0 mm | 0.45 m/s, 339° | 509 W/m² | - |
| 1787836996 | 26.11° C | 37% | 1018.2 hPa | 0 mm | 0.89 m/s, 56° | 508 W/m² | - |
| 1787836936 | 26.11° C | 38% | 1018.3 hPa | 0 mm | 1.34 m/s, 142° | 510 W/m² | - |
| 1787836876 | 26.11° C | 38% | 1018.1 hPa | 0 mm | 2.24 m/s, 9° | 507 W/m² | - |
| 1787836816 | 26.11° C | 38% | 1018.2 hPa | 0 mm | 0.45 m/s, 48° | 515 W/m² | - |
| 1787836756 | 26.11° C | 37% | 1018.2 hPa | 0 mm | 1.34 m/s, 13° | 514 W/m² | - |
| 1787836696 | 26.11° C | 39% | 1018.1 hPa | 0 mm | 0.89 m/s, 144° | 516 W/m² | - |
| 1787836636 | 26.11° C | 37% | 1018.1 hPa | 0 mm | 2.68 m/s, 36° | 521 W/m² | - |
| 1787836576 | 26.11° C | 40% | 1018 hPa | 0 mm | 0.45 m/s, 60° | 521 W/m² | - |
| 1787836516 | 26.11° C | 36% | 1018.1 hPa | 0 mm | 1.79 m/s, 34° | 522 W/m² | - |
| 1787836456 | 26.11° C | 38% | 1018.1 hPa | 0 mm | 1.79 m/s, 107° | 524 W/m² | - |
| 1787836396 | 26.11° C | 37% | 1017.9 hPa | 0 mm | 0.89 m/s, 345° | 522 W/m² | - |
| 1787836335 | 26.11° C | 38% | 1018 hPa | 0 mm | 1.34 m/s, 354° | 528 W/m² | - |
| 1787836276 | 26.11° C | 38% | 1018.1 hPa | 0 mm | 0.89 m/s, 352° | 527 W/m² | - |
| 1787836216 | 26.11° C | 38% | 1018.2 hPa | 0 mm | 1.79 m/s, 79° | 529 W/m² | - |
| 1787836156 | 26.11° C | 38% | 1018.2 hPa | 0 mm | 2.24 m/s, 31° | 530 W/m² | - |
| 1787836096 | 26.11° C | 38% | 1018 hPa | 0 mm | 2.24 m/s, 47° | 533 W/m² | - |
| 1787836036 | 26.11° C | 37% | 1018.1 hPa | 0 mm | 0.89 m/s, 42° | 533 W/m² | - |
| 1787835976 | 26.11° C | 37% | 1018.2 hPa | 0 mm | 0.89 m/s, 183° | 538 W/m² | - |
| 1787835916 | 26.11° C | 36% | 1018.3 hPa | 0 mm | 2.68 m/s, 126° | 540 W/m² | - |
| 1787835855 | 26.11° C | 38% | 1018.1 hPa | 0 mm | 1.34 m/s, 38° | 540 W/m² | - |
* Rain latest hour (hover to see other rain measurements)
** Current wind speed in m/s (hover to see current wind gust speed)